sensor_id;sensor_type;location;lat;lon;timestamp;P1;durP1;ratioP1;P2;durP2;ratioP2
12120;SDS011;6124;59.460;17.908;2022-08-19T00:00:09;26.90;;;19.30;;
12120;SDS011;6124;59.460;17.908;2022-08-19T00:02:42;26.90;;;19.77;;
12120;SDS011;6124;59.460;17.908;2022-08-19T00:05:09;23.67;;;18.57;;
12120;SDS011;6124;59.460;17.908;2022-08-19T00:07:37;25.20;;;19.87;;
12120;SDS011;6124;59.460;17.908;2022-08-19T00:10:05;25.03;;;18.17;;
12120;SDS011;6124;59.460;17.908;2022-08-19T00:12:32;24.60;;;19.23;;
12120;SDS011;6124;59.460;17.908;2022-08-19T00:15:01;24.67;;;19.10;;
12120;SDS011;6124;59.460;17.908;2022-08-19T00:17:28;23.47;;;18.20;;
12120;SDS011;6124;59.460;17.908;2022-08-19T00:19:56;25.07;;;18.97;;
12120;SDS011;6124;59.460;17.908;2022-08-19T00:22:24;28.17;;;21.10;;
12120;SDS011;6124;59.460;17.908;2022-08-19T00:24:53;26.53;;;19.43;;
12120;SDS011;6124;59.460;17.908;2022-08-19T00:27:20;25.63;;;19.73;;
12120;SDS011;6124;59.460;17.908;2022-08-19T00:29:47;24.00;;;19.30;;
12120;SDS011;6124;59.460;17.908;2022-08-19T00:32:15;28.17;;;20.30;;
12120;SDS011;6124;59.460;17.908;2022-08-19T00:34:42;27.70;;;20.83;;
12120;SDS011;6124;59.460;17.908;2022-08-19T00:37:11;30.93;;;21.93;;
12120;SDS011;6124;59.460;17.908;2022-08-19T00:39:38;30.00;;;21.57;;
12120;SDS011;6124;59.460;17.908;2022-08-19T00:42:05;32.20;;;22.20;;
12120;SDS011;6124;59.460;17.908;2022-08-19T00:44:33;30.37;;;21.60;;
12120;SDS011;6124;59.460;17.908;2022-08-19T00:47:00;36.33;;;25.20;;
12120;SDS011;6124;59.460;17.908;2022-08-19T00:49:29;36.00;;;24.30;;
12120;SDS011;6124;59.460;17.908;2022-08-19T00:51:57;34.53;;;22.73;;
12120;SDS011;6124;59.460;17.908;2022-08-19T00:54:27;34.10;;;23.87;;
12120;SDS011;6124;59.460;17.908;2022-08-19T00:56:56;40.57;;;25.30;;
12120;SDS011;6124;59.460;17.908;2022-08-19T00:59:24;36.57;;;25.50;;
12120;SDS011;6124;59.460;17.908;2022-08-19T01:01:51;39.27;;;25.30;;
12120;SDS011;6124;59.460;17.908;2022-08-19T01:04:22;40.90;;;25.63;;
12120;SDS011;6124;59.460;17.908;2022-08-19T01:06:49;36.27;;;25.57;;
12120;SDS011;6124;59.460;17.908;2022-08-19T01:09:17;42.07;;;26.77;;
12120;SDS011;6124;59.460;17.908;2022-08-19T01:11:45;37.90;;;25.80;;
12120;SDS011;6124;59.460;17.908;2022-08-19T01:14:12;39.30;;;26.43;;
12120;SDS011;6124;59.460;17.908;2022-08-19T01:16:42;41.43;;;27.90;;
12120;SDS011;6124;59.460;17.908;2022-08-19T01:19:10;41.03;;;28.53;;
12120;SDS011;6124;59.460;17.908;2022-08-19T01:21:40;42.27;;;29.10;;
12120;SDS011;6124;59.460;17.908;2022-08-19T01:24:10;39.07;;;27.57;;
12120;SDS011;6124;59.460;17.908;2022-08-19T01:26:38;40.40;;;29.60;;
12120;SDS011;6124;59.460;17.908;2022-08-19T01:29:07;39.20;;;28.53;;
12120;SDS011;6124;59.460;17.908;2022-08-19T01:31:34;40.60;;;29.20;;
12120;SDS011;6124;59.460;17.908;2022-08-19T01:34:02;37.57;;;28.40;;
12120;SDS011;6124;59.460;17.908;2022-08-19T01:36:30;40.50;;;27.43;;
12120;SDS011;6124;59.460;17.908;2022-08-19T01:38:58;34.43;;;25.87;;
12120;SDS011;6124;59.460;17.908;2022-08-19T01:41:27;33.80;;;25.63;;
12120;SDS011;6124;59.460;17.908;2022-08-19T01:43:54;31.77;;;25.40;;
12120;SDS011;6124;59.460;17.908;2022-08-19T01:46:21;30.33;;;24.50;;
12120;SDS011;6124;59.460;17.908;2022-08-19T01:48:49;31.93;;;26.27;;
12120;SDS011;6124;59.460;17.908;2022-08-19T01:51:16;31.53;;;26.13;;
12120;SDS011;6124;59.460;17.908;2022-08-19T01:53:43;33.80;;;26.27;;
12120;SDS011;6124;59.460;17.908;2022-08-19T01:56:13;29.77;;;25.03;;
12120;SDS011;6124;59.460;17.908;2022-08-19T01:58:43;31.53;;;25.53;;
12120;SDS011;6124;59.460;17.908;2022-08-19T02:01:12;34.47;;;27.57;;
12120;SDS011;6124;59.460;17.908;2022-08-19T02:03:39;32.20;;;26.00;;
12120;SDS011;6124;59.460;17.908;2022-08-19T02:06:06;34.97;;;27.63;;
12120;SDS011;6124;59.460;17.908;2022-08-19T02:08:35;32.03;;;26.03;;
12120;SDS011;6124;59.460;17.908;2022-08-19T02:11:03;31.20;;;25.67;;
12120;SDS011;6124;59.460;17.908;2022-08-19T02:13:30;28.47;;;22.90;;
12120;SDS011;6124;59.460;17.908;2022-08-19T02:16:00;27.30;;;23.73;;
12120;SDS011;6124;59.460;17.908;2022-08-19T02:18:27;26.30;;;22.83;;
12120;SDS011;6124;59.460;17.908;2022-08-19T02:20:54;31.67;;;24.60;;
12120;SDS011;6124;59.460;17.908;2022-08-19T02:23:21;31.80;;;25.57;;
12120;SDS011;6124;59.460;17.908;2022-08-19T02:25:48;28.73;;;22.67;;
12120;SDS011;6124;59.460;17.908;2022-08-19T02:28:16;28.70;;;23.97;;
12120;SDS011;6124;59.460;17.908;2022-08-19T02:30:43;29.43;;;24.97;;
12120;SDS011;6124;59.460;17.908;2022-08-19T02:33:11;28.30;;;24.07;;
12120;SDS011;6124;59.460;17.908;2022-08-19T02:35:40;28.53;;;24.13;;
12120;SDS011;6124;59.460;17.908;2022-08-19T02:38:08;28.57;;;24.33;;
12120;SDS011;6124;59.460;17.908;2022-08-19T02:40:55;26.73;;;23.10;;
12120;SDS011;6124;59.460;17.908;2022-08-19T02:43:22;26.00;;;23.27;;
12120;SDS011;6124;59.460;17.908;2022-08-19T02:45:50;26.40;;;22.70;;
12120;SDS011;6124;59.460;17.908;2022-08-19T02:48:19;29.60;;;24.23;;
12120;SDS011;6124;59.460;17.908;2022-08-19T02:50:47;28.67;;;24.70;;
12120;SDS011;6124;59.460;17.908;2022-08-19T02:53:17;24.50;;;21.83;;
12120;SDS011;6124;59.460;17.908;2022-08-19T02:55:47;25.63;;;22.60;;
12120;SDS011;6124;59.460;17.908;2022-08-19T02:58:14;28.23;;;22.57;;
12120;SDS011;6124;59.460;17.908;2022-08-19T03:00:42;28.87;;;23.73;;
12120;SDS011;6124;59.460;17.908;2022-08-19T03:03:10;26.67;;;23.77;;
12120;SDS011;6124;59.460;17.908;2022-08-19T03:05:39;24.43;;;21.90;;
12120;SDS011;6124;59.460;17.908;2022-08-19T03:08:06;28.30;;;23.83;;
12120;SDS011;6124;59.460;17.908;2022-08-19T03:10:39;25.30;;;22.57;;
12120;SDS011;6124;59.460;17.908;2022-08-19T03:13:07;25.70;;;22.83;;
12120;SDS011;6124;59.460;17.908;2022-08-19T03:15:34;24.73;;;22.13;;
12120;SDS011;6124;59.460;17.908;2022-08-19T03:18:01;29.50;;;24.67;;
12120;SDS011;6124;59.460;17.908;2022-08-19T03:20:28;26.50;;;23.40;;
12120;SDS011;6124;59.460;17.908;2022-08-19T03:22:57;27.97;;;23.37;;
12120;SDS011;6124;59.460;17.908;2022-08-19T03:25:24;26.20;;;23.13;;
12120;SDS011;6124;59.460;17.908;2022-08-19T03:27:51;30.37;;;22.87;;
12120;SDS011;6124;59.460;17.908;2022-08-19T03:30:19;26.67;;;22.60;;
12120;SDS011;6124;59.460;17.908;2022-08-19T03:32:46;26.90;;;23.70;;
12120;SDS011;6124;59.460;17.908;2022-08-19T03:35:13;30.67;;;22.77;;
12120;SDS011;6124;59.460;17.908;2022-08-19T03:37:40;28.83;;;23.40;;
12120;SDS011;6124;59.460;17.908;2022-08-19T03:40:09;29.50;;;25.30;;
12120;SDS011;6124;59.460;17.908;2022-08-19T03:42:36;33.20;;;25.90;;
12120;SDS011;6124;59.460;17.908;2022-08-19T03:45:05;29.93;;;25.27;;
12120;SDS011;6124;59.460;17.908;2022-08-19T03:47:33;29.93;;;25.00;;
12120;SDS011;6124;59.460;17.908;2022-08-19T03:50:00;31.57;;;26.07;;
12120;SDS011;6124;59.460;17.908;2022-08-19T03:52:27;27.70;;;22.90;;
12120;SDS011;6124;59.460;17.908;2022-08-19T03:54:54;26.50;;;22.63;;
12120;SDS011;6124;59.460;17.908;2022-08-19T03:57:23;28.20;;;25.13;;
12120;SDS011;6124;59.460;17.908;2022-08-19T03:59:50;30.60;;;24.17;;
12120;SDS011;6124;59.460;17.908;2022-08-19T04:02:17;27.27;;;23.20;;
12120;SDS011;6124;59.460;17.908;2022-08-19T04:04:45;25.30;;;21.80;;
12120;SDS011;6124;59.460;17.908;2022-08-19T04:07:13;26.30;;;22.70;;
12120;SDS011;6124;59.460;17.908;2022-08-19T04:09:43;27.00;;;22.97;;
12120;SDS011;6124;59.460;17.908;2022-08-19T04:12:10;26.37;;;23.53;;
12120;SDS011;6124;59.460;17.908;2022-08-19T04:14:39;25.30;;;22.57;;
12120;SDS011;6124;59.460;17.908;2022-08-19T04:17:06;29.23;;;23.60;;
12120;SDS011;6124;59.460;17.908;2022-08-19T04:19:34;26.20;;;23.27;;
12120;SDS011;6124;59.460;17.908;2022-08-19T04:22:01;27.70;;;23.67;;
12120;SDS011;6124;59.460;17.908;2022-08-19T04:24:29;29.67;;;24.40;;
12120;SDS011;6124;59.460;17.908;2022-08-19T04:26:56;29.67;;;25.00;;
12120;SDS011;6124;59.460;17.908;2022-08-19T04:29:24;30.13;;;25.37;;
12120;SDS011;6124;59.460;17.908;2022-08-19T04:31:53;25.70;;;22.80;;
12120;SDS011;6124;59.460;17.908;2022-08-19T04:34:21;32.50;;;25.97;;
12120;SDS011;6124;59.460;17.908;2022-08-19T04:36:49;28.40;;;24.10;;
12120;SDS011;6124;59.460;17.908;2022-08-19T04:39:18;28.10;;;23.77;;
12120;SDS011;6124;59.460;17.908;2022-08-19T04:41:45;26.90;;;23.50;;
12120;SDS011;6124;59.460;17.908;2022-08-19T04:44:30;32.20;;;24.73;;
12120;SDS011;6124;59.460;17.908;2022-08-19T04:46:59;29.27;;;24.70;;
12120;SDS011;6124;59.460;17.908;2022-08-19T04:49:31;32.17;;;24.80;;
12120;SDS011;6124;59.460;17.908;2022-08-19T04:51:58;31.50;;;25.67;;
12120;SDS011;6124;59.460;17.908;2022-08-19T04:54:25;30.10;;;25.47;;
12120;SDS011;6124;59.460;17.908;2022-08-19T04:56:52;30.67;;;24.80;;
12120;SDS011;6124;59.460;17.908;2022-08-19T04:59:20;26.13;;;23.33;;
12120;SDS011;6124;59.460;17.908;2022-08-19T05:01:47;26.53;;;23.20;;
12120;SDS011;6124;59.460;17.908;2022-08-19T05:04:18;24.43;;;21.93;;
12120;SDS011;6124;59.460;17.908;2022-08-19T05:06:45;28.23;;;22.30;;
12120;SDS011;6124;59.460;17.908;2022-08-19T05:09:13;29.63;;;23.27;;
12120;SDS011;6124;59.460;17.908;2022-08-19T05:11:41;27.07;;;23.43;;
12120;SDS011;6124;59.460;17.908;2022-08-19T05:14:09;29.23;;;24.67;;
12120;SDS011;6124;59.460;17.908;2022-08-19T05:16:37;25.40;;;22.10;;
12120;SDS011;6124;59.460;17.908;2022-08-19T05:19:04;27.53;;;22.43;;
12120;SDS011;6124;59.460;17.908;2022-08-19T05:21:51;26.83;;;23.77;;
12120;SDS011;6124;59.460;17.908;2022-08-19T05:24:36;26.60;;;22.40;;
12120;SDS011;6124;59.460;17.908;2022-08-19T05:27:03;27.40;;;23.57;;
12120;SDS011;6124;59.460;17.908;2022-08-19T05:29:31;31.00;;;23.60;;
12120;SDS011;6124;59.460;17.908;2022-08-19T05:31:59;25.17;;;22.03;;
12120;SDS011;6124;59.460;17.908;2022-08-19T05:34:26;26.63;;;22.30;;
12120;SDS011;6124;59.460;17.908;2022-08-19T05:36:56;26.83;;;23.03;;
12120;SDS011;6124;59.460;17.908;2022-08-19T05:39:25;24.43;;;21.53;;
12120;SDS011;6124;59.460;17.908;2022-08-19T05:41:53;25.43;;;21.70;;
12120;SDS011;6124;59.460;17.908;2022-08-19T05:44:22;26.33;;;22.50;;
12120;SDS011;6124;59.460;17.908;2022-08-19T05:46:49;26.03;;;21.43;;
12120;SDS011;6124;59.460;17.908;2022-08-19T05:49:18;25.63;;;22.87;;
12120;SDS011;6124;59.460;17.908;2022-08-19T05:51:46;25.33;;;22.67;;
12120;SDS011;6124;59.460;17.908;2022-08-19T05:54:15;30.40;;;23.57;;
12120;SDS011;6124;59.460;17.908;2022-08-19T05:56:42;26.70;;;22.10;;
12120;SDS011;6124;59.460;17.908;2022-08-19T05:59:12;26.53;;;22.23;;
12120;SDS011;6124;59.460;17.908;2022-08-19T06:01:40;27.93;;;23.63;;
12120;SDS011;6124;59.460;17.908;2022-08-19T06:04:08;26.70;;;23.10;;
12120;SDS011;6124;59.460;17.908;2022-08-19T06:06:35;25.83;;;21.80;;
12120;SDS011;6124;59.460;17.908;2022-08-19T06:09:03;26.50;;;23.27;;
12120;SDS011;6124;59.460;17.908;2022-08-19T06:11:36;26.47;;;21.90;;
12120;SDS011;6124;59.460;17.908;2022-08-19T06:14:04;26.27;;;22.57;;
12120;SDS011;6124;59.460;17.908;2022-08-19T06:16:33;27.80;;;22.27;;
12120;SDS011;6124;59.460;17.908;2022-08-19T06:19:02;22.97;;;20.53;;
12120;SDS011;6124;59.460;17.908;2022-08-19T06:21:31;23.67;;;21.07;;
12120;SDS011;6124;59.460;17.908;2022-08-19T06:23:59;25.87;;;22.67;;
12120;SDS011;6124;59.460;17.908;2022-08-19T06:26:27;24.57;;;21.90;;
12120;SDS011;6124;59.460;17.908;2022-08-19T06:28:56;22.27;;;19.70;;
12120;SDS011;6124;59.460;17.908;2022-08-19T06:31:24;23.57;;;20.80;;
12120;SDS011;6124;59.460;17.908;2022-08-19T06:33:52;25.70;;;21.40;;
12120;SDS011;6124;59.460;17.908;2022-08-19T06:36:20;25.73;;;21.40;;
12120;SDS011;6124;59.460;17.908;2022-08-19T06:38:52;23.03;;;20.60;;
12120;SDS011;6124;59.460;17.908;2022-08-19T06:41:19;24.23;;;20.67;;
12120;SDS011;6124;59.460;17.908;2022-08-19T06:43:46;29.33;;;21.17;;
12120;SDS011;6124;59.460;17.908;2022-08-19T06:46:15;26.43;;;20.23;;
12120;SDS011;6124;59.460;17.908;2022-08-19T06:48:43;24.90;;;20.60;;
12120;SDS011;6124;59.460;17.908;2022-08-19T06:51:10;22.40;;;20.00;;
12120;SDS011;6124;59.460;17.908;2022-08-19T06:53:40;22.70;;;19.90;;
12120;SDS011;6124;59.460;17.908;2022-08-19T06:56:12;22.93;;;19.60;;
12120;SDS011;6124;59.460;17.908;2022-08-19T06:58:39;21.53;;;18.77;;
12120;SDS011;6124;59.460;17.908;2022-08-19T07:01:06;24.13;;;20.17;;
12120;SDS011;6124;59.460;17.908;2022-08-19T07:03:36;21.03;;;18.17;;
12120;SDS011;6124;59.460;17.908;2022-08-19T07:06:04;20.37;;;18.27;;
12120;SDS011;6124;59.460;17.908;2022-08-19T07:08:32;22.63;;;17.50;;
12120;SDS011;6124;59.460;17.908;2022-08-19T07:11:01;19.57;;;17.33;;
12120;SDS011;6124;59.460;17.908;2022-08-19T07:13:28;20.17;;;16.10;;
12120;SDS011;6124;59.460;17.908;2022-08-19T07:16:02;18.93;;;16.27;;
12120;SDS011;6124;59.460;17.908;2022-08-19T07:18:29;16.43;;;14.73;;
12120;SDS011;6124;59.460;17.908;2022-08-19T07:21:03;14.73;;;13.23;;
12120;SDS011;6124;59.460;17.908;2022-08-19T07:23:30;15.17;;;13.57;;
12120;SDS011;6124;59.460;17.908;2022-08-19T07:25:57;15.43;;;13.93;;
12120;SDS011;6124;59.460;17.908;2022-08-19T07:28:24;19.93;;;14.23;;
12120;SDS011;6124;59.460;17.908;2022-08-19T07:30:51;19.33;;;14.27;;
12120;SDS011;6124;59.460;17.908;2022-08-19T07:33:19;15.97;;;13.20;;
12120;SDS011;6124;59.460;17.908;2022-08-19T07:35:46;16.10;;;13.50;;
12120;SDS011;6124;59.460;17.908;2022-08-19T07:38:16;15.13;;;13.17;;
12120;SDS011;6124;59.460;17.908;2022-08-19T07:40:43;14.07;;;12.67;;
12120;SDS011;6124;59.460;17.908;2022-08-19T07:43:10;16.80;;;12.33;;
12120;SDS011;6124;59.460;17.908;2022-08-19T07:45:38;16.50;;;13.07;;
12120;SDS011;6124;59.460;17.908;2022-08-19T07:48:05;13.57;;;12.17;;
12120;SDS011;6124;59.460;17.908;2022-08-19T07:50:32;15.93;;;12.20;;
12120;SDS011;6124;59.460;17.908;2022-08-19T07:52:59;15.10;;;12.10;;
12120;SDS011;6124;59.460;17.908;2022-08-19T07:55:28;14.80;;;11.43;;
12120;SDS011;6124;59.460;17.908;2022-08-19T07:57:55;15.13;;;12.10;;
12120;SDS011;6124;59.460;17.908;2022-08-19T08:00:22;13.17;;;11.37;;
12120;SDS011;6124;59.460;17.908;2022-08-19T08:02:50;14.63;;;11.33;;
12120;SDS011;6124;59.460;17.908;2022-08-19T08:05:17;15.40;;;11.07;;
12120;SDS011;6124;59.460;17.908;2022-08-19T08:08:04;13.00;;;10.20;;
12120;SDS011;6124;59.460;17.908;2022-08-19T08:11:05;16.10;;;11.00;;
12120;SDS011;6124;59.460;17.908;2022-08-19T08:13:32;15.23;;;11.27;;
12120;SDS011;6124;59.460;17.908;2022-08-19T08:16:00;17.57;;;11.53;;
12120;SDS011;6124;59.460;17.908;2022-08-19T08:18:27;14.60;;;11.57;;
12120;SDS011;6124;59.460;17.908;2022-08-19T08:20:55;14.23;;;10.53;;
12120;SDS011;6124;59.460;17.908;2022-08-19T08:23:22;13.87;;;10.30;;
12120;SDS011;6124;59.460;17.908;2022-08-19T08:25:50;12.77;;;10.23;;
12120;SDS011;6124;59.460;17.908;2022-08-19T08:28:19;14.33;;;10.73;;
12120;SDS011;6124;59.460;17.908;2022-08-19T08:30:46;12.23;;;10.00;;
12120;SDS011;6124;59.460;17.908;2022-08-19T08:33:14;12.57;;;10.53;;
12120;SDS011;6124;59.460;17.908;2022-08-19T08:35:41;13.33;;;10.20;;
12120;SDS011;6124;59.460;17.908;2022-08-19T08:38:08;11.43;;;9.87;;
12120;SDS011;6124;59.460;17.908;2022-08-19T08:40:38;14.43;;;9.80;;
12120;SDS011;6124;59.460;17.908;2022-08-19T08:43:07;11.80;;;9.63;;
12120;SDS011;6124;59.460;17.908;2022-08-19T08:45:38;13.33;;;10.23;;
12120;SDS011;6124;59.460;17.908;2022-08-19T08:48:11;12.50;;;9.13;;
12120;SDS011;6124;59.460;17.908;2022-08-19T08:50:42;12.57;;;10.13;;
12120;SDS011;6124;59.460;17.908;2022-08-19T08:53:09;12.03;;;9.17;;
12120;SDS011;6124;59.460;17.908;2022-08-19T08:55:37;10.67;;;8.80;;
12120;SDS011;6124;59.460;17.908;2022-08-19T08:58:06;12.53;;;8.70;;
12120;SDS011;6124;59.460;17.908;2022-08-19T09:00:34;10.33;;;8.40;;
12120;SDS011;6124;59.460;17.908;2022-08-19T09:03:05;12.87;;;8.67;;
12120;SDS011;6124;59.460;17.908;2022-08-19T09:05:35;13.87;;;8.97;;
12120;SDS011;6124;59.460;17.908;2022-08-19T09:08:08;9.87;;;8.50;;
12120;SDS011;6124;59.460;17.908;2022-08-19T09:10:39;12.37;;;8.87;;
12120;SDS011;6124;59.460;17.908;2022-08-19T09:13:11;9.73;;;8.20;;
12120;SDS011;6124;59.460;17.908;2022-08-19T09:15:42;13.53;;;8.53;;
12120;SDS011;6124;59.460;17.908;2022-08-19T09:18:12;10.93;;;7.80;;
12120;SDS011;6124;59.460;17.908;2022-08-19T09:20:39;12.47;;;7.97;;
12120;SDS011;6124;59.460;17.908;2022-08-19T09:23:06;9.67;;;7.67;;
12120;SDS011;6124;59.460;17.908;2022-08-19T09:25:34;11.47;;;7.50;;
12120;SDS011;6124;59.460;17.908;2022-08-19T09:28:01;10.43;;;7.50;;
12120;SDS011;6124;59.460;17.908;2022-08-19T09:30:29;10.73;;;7.80;;
12120;SDS011;6124;59.460;17.908;2022-08-19T09:32:57;13.57;;;7.80;;
12120;SDS011;6124;59.460;17.908;2022-08-19T09:35:26;9.03;;;7.50;;
12120;SDS011;6124;59.460;17.908;2022-08-19T09:37:55;9.60;;;7.10;;
12120;SDS011;6124;59.460;17.908;2022-08-19T09:40:22;11.60;;;7.37;;
12120;SDS011;6124;59.460;17.908;2022-08-19T09:42:49;10.30;;;7.10;;
12120;SDS011;6124;59.460;17.908;2022-08-19T09:45:18;10.57;;;7.10;;
12120;SDS011;6124;59.460;17.908;2022-08-19T09:47:46;9.43;;;7.10;;
12120;SDS011;6124;59.460;17.908;2022-08-19T09:50:15;9.20;;;7.23;;
12120;SDS011;6124;59.460;17.908;2022-08-19T09:52:44;8.43;;;7.43;;
12120;SDS011;6124;59.460;17.908;2022-08-19T09:55:12;10.10;;;6.90;;
12120;SDS011;6124;59.460;17.908;2022-08-19T09:57:41;8.67;;;7.40;;
12120;SDS011;6124;59.460;17.908;2022-08-19T10:00:08;8.67;;;7.60;;
12120;SDS011;6124;59.460;17.908;2022-08-19T10:02:36;8.03;;;6.27;;
12120;SDS011;6124;59.460;17.908;2022-08-19T10:05:03;9.43;;;6.87;;
12120;SDS011;6124;59.460;17.908;2022-08-19T10:07:49;10.07;;;7.40;;
12120;SDS011;6124;59.460;17.908;2022-08-19T10:10:16;10.97;;;7.00;;
12120;SDS011;6124;59.460;17.908;2022-08-19T10:12:44;11.03;;;7.43;;
12120;SDS011;6124;59.460;17.908;2022-08-19T10:15:12;10.93;;;7.33;;
12120;SDS011;6124;59.460;17.908;2022-08-19T10:17:39;10.47;;;7.40;;
12120;SDS011;6124;59.460;17.908;2022-08-19T10:20:07;9.93;;;7.10;;
12120;SDS011;6124;59.460;17.908;2022-08-19T10:22:34;13.83;;;7.40;;
12120;SDS011;6124;59.460;17.908;2022-08-19T10:25:04;8.20;;;7.40;;
12120;SDS011;6124;59.460;17.908;2022-08-19T10:27:31;11.80;;;7.33;;
12120;SDS011;6124;59.460;17.908;2022-08-19T10:29:58;8.40;;;7.37;;
12120;SDS011;6124;59.460;17.908;2022-08-19T10:32:26;11.10;;;7.33;;
12120;SDS011;6124;59.460;17.908;2022-08-19T10:34:54;10.23;;;7.80;;
12120;SDS011;6124;59.460;17.908;2022-08-19T10:37:21;10.00;;;7.60;;
12120;SDS011;6124;59.460;17.908;2022-08-19T10:39:48;8.13;;;7.00;;
12120;SDS011;6124;59.460;17.908;2022-08-19T10:42:17;12.73;;;7.50;;
12120;SDS011;6124;59.460;17.908;2022-08-19T10:44:44;11.63;;;7.30;;
12120;SDS011;6124;59.460;17.908;2022-08-19T10:47:13;11.83;;;7.73;;
12120;SDS011;6124;59.460;17.908;2022-08-19T10:49:40;9.20;;;7.50;;
12120;SDS011;6124;59.460;17.908;2022-08-19T10:52:25;9.60;;;7.70;;
12120;SDS011;6124;59.460;17.908;2022-08-19T10:55:02;7.60;;;6.80;;
12120;SDS011;6124;59.460;17.908;2022-08-19T10:57:49;11.23;;;7.90;;
12120;SDS011;6124;59.460;17.908;2022-08-19T11:00:17;10.83;;;7.97;;
12120;SDS011;6124;59.460;17.908;2022-08-19T11:02:45;8.47;;;7.67;;
12120;SDS011;6124;59.460;17.908;2022-08-19T11:05:12;10.73;;;7.83;;
12120;SDS011;6124;59.460;17.908;2022-08-19T11:07:39;9.90;;;6.87;;
12120;SDS011;6124;59.460;17.908;2022-08-19T11:10:07;9.00;;;6.97;;
12120;SDS011;6124;59.460;17.908;2022-08-19T11:12:36;10.40;;;7.93;;
12120;SDS011;6124;59.460;17.908;2022-08-19T11:15:06;8.10;;;7.30;;
12120;SDS011;6124;59.460;17.908;2022-08-19T11:17:33;10.97;;;7.67;;
12120;SDS011;6124;59.460;17.908;2022-08-19T11:20:01;10.07;;;7.60;;
12120;SDS011;6124;59.460;17.908;2022-08-19T11:22:30;8.43;;;7.50;;
12120;SDS011;6124;59.460;17.908;2022-08-19T11:24:57;9.93;;;7.50;;
12120;SDS011;6124;59.460;17.908;2022-08-19T11:27:24;9.77;;;7.07;;
12120;SDS011;6124;59.460;17.908;2022-08-19T11:29:52;9.77;;;7.57;;
12120;SDS011;6124;59.460;17.908;2022-08-19T11:32:20;10.20;;;7.40;;
12120;SDS011;6124;59.460;17.908;2022-08-19T11:34:47;10.30;;;7.40;;
12120;SDS011;6124;59.460;17.908;2022-08-19T11:37:15;10.60;;;7.57;;
12120;SDS011;6124;59.460;17.908;2022-08-19T11:39:42;9.90;;;7.30;;
12120;SDS011;6124;59.460;17.908;2022-08-19T11:42:09;11.93;;;7.70;;
12120;SDS011;6124;59.460;17.908;2022-08-19T11:44:54;10.80;;;7.60;;
12120;SDS011;6124;59.460;17.908;2022-08-19T11:47:22;8.27;;;7.30;;
12120;SDS011;6124;59.460;17.908;2022-08-19T11:49:50;9.57;;;7.53;;
12120;SDS011;6124;59.460;17.908;2022-08-19T11:52:18;7.97;;;7.17;;
12120;SDS011;6124;59.460;17.908;2022-08-19T11:54:45;10.50;;;7.60;;
12120;SDS011;6124;59.460;17.908;2022-08-19T11:57:12;11.07;;;7.60;;
12120;SDS011;6124;59.460;17.908;2022-08-19T11:59:41;7.87;;;6.90;;
12120;SDS011;6124;59.460;17.908;2022-08-19T12:02:08;10.03;;;7.30;;
12120;SDS011;6124;59.460;17.908;2022-08-19T12:04:38;7.80;;;7.00;;
12120;SDS011;6124;59.460;17.908;2022-08-19T12:07:05;9.60;;;7.20;;
12120;SDS011;6124;59.460;17.908;2022-08-19T12:09:32;8.50;;;6.63;;
12120;SDS011;6124;59.460;17.908;2022-08-19T12:12:00;8.07;;;6.80;;
12120;SDS011;6124;59.460;17.908;2022-08-19T12:14:27;10.87;;;7.00;;
12120;SDS011;6124;59.460;17.908;2022-08-19T12:16:55;8.67;;;7.00;;
12120;SDS011;6124;59.460;17.908;2022-08-19T12:19:23;7.83;;;6.60;;
12120;SDS011;6124;59.460;17.908;2022-08-19T12:21:52;11.70;;;7.23;;
12120;SDS011;6124;59.460;17.908;2022-08-19T12:24:21;9.47;;;6.63;;
12120;SDS011;6124;59.460;17.908;2022-08-19T12:26:49;8.47;;;7.50;;
12120;SDS011;6124;59.460;17.908;2022-08-19T12:29:17;11.97;;;7.47;;
12120;SDS011;6124;59.460;17.908;2022-08-19T12:31:44;8.83;;;7.10;;
12120;SDS011;6124;59.460;17.908;2022-08-19T12:34:11;7.27;;;6.53;;
12120;SDS011;6124;59.460;17.908;2022-08-19T12:36:38;8.63;;;7.10;;
12120;SDS011;6124;59.460;17.908;2022-08-19T12:39:07;8.03;;;7.23;;
12120;SDS011;6124;59.460;17.908;2022-08-19T12:41:34;7.30;;;6.60;;
12120;SDS011;6124;59.460;17.908;2022-08-19T12:44:01;10.83;;;7.07;;
12120;SDS011;6124;59.460;17.908;2022-08-19T12:46:28;11.17;;;6.73;;
12120;SDS011;6124;59.460;17.908;2022-08-19T12:48:56;9.43;;;7.70;;
12120;SDS011;6124;59.460;17.908;2022-08-19T12:51:23;8.67;;;7.37;;
12120;SDS011;6124;59.460;17.908;2022-08-19T12:53:51;8.43;;;7.33;;
12120;SDS011;6124;59.460;17.908;2022-08-19T12:56:20;7.67;;;6.47;;
12120;SDS011;6124;59.460;17.908;2022-08-19T12:58:47;9.83;;;7.07;;
12120;SDS011;6124;59.460;17.908;2022-08-19T13:01:15;10.23;;;7.13;;
12120;SDS011;6124;59.460;17.908;2022-08-19T13:03:44;11.43;;;7.30;;
12120;SDS011;6124;59.460;17.908;2022-08-19T13:06:11;8.17;;;6.87;;
12120;SDS011;6124;59.460;17.908;2022-08-19T13:08:39;9.87;;;7.47;;
12120;SDS011;6124;59.460;17.908;2022-08-19T13:11:08;9.90;;;7.50;;
12120;SDS011;6124;59.460;17.908;2022-08-19T13:13:38;8.90;;;6.90;;
12120;SDS011;6124;59.460;17.908;2022-08-19T13:16:06;13.50;;;7.33;;
12120;SDS011;6124;59.460;17.908;2022-08-19T13:18:34;9.73;;;7.07;;
12120;SDS011;6124;59.460;17.908;2022-08-19T13:21:02;11.20;;;7.53;;
12120;SDS011;6124;59.460;17.908;2022-08-19T13:23:30;9.80;;;6.97;;
12120;SDS011;6124;59.460;17.908;2022-08-19T13:25:57;8.23;;;6.90;;
12120;SDS011;6124;59.460;17.908;2022-08-19T13:28:24;10.10;;;7.50;;
12120;SDS011;6124;59.460;17.908;2022-08-19T13:31:15;9.83;;;6.90;;
12120;SDS011;6124;59.460;17.908;2022-08-19T13:34:00;9.33;;;7.40;;
12120;SDS011;6124;59.460;17.908;2022-08-19T13:36:27;10.40;;;7.30;;
12120;SDS011;6124;59.460;17.908;2022-08-19T13:38:54;7.60;;;6.80;;
12120;SDS011;6124;59.460;17.908;2022-08-19T13:41:21;9.03;;;6.80;;
12120;SDS011;6124;59.460;17.908;2022-08-19T13:43:48;8.50;;;7.60;;
12120;SDS011;6124;59.460;17.908;2022-08-19T13:46:17;9.67;;;8.10;;
12120;SDS011;6124;59.460;17.908;2022-08-19T13:48:45;11.90;;;8.13;;
12120;SDS011;6124;59.460;17.908;2022-08-19T13:51:13;9.53;;;8.03;;
12120;SDS011;6124;59.460;17.908;2022-08-19T13:53:41;10.10;;;7.93;;
12120;SDS011;6124;59.460;17.908;2022-08-19T13:56:10;9.37;;;8.30;;
12120;SDS011;6124;59.460;17.908;2022-08-19T13:58:37;11.63;;;7.80;;
12120;SDS011;6124;59.460;17.908;2022-08-19T14:01:05;10.63;;;7.70;;
12120;SDS011;6124;59.460;17.908;2022-08-19T14:03:33;10.33;;;8.00;;
12120;SDS011;6124;59.460;17.908;2022-08-19T14:06:01;9.87;;;8.27;;
12120;SDS011;6124;59.460;17.908;2022-08-19T14:08:28;9.80;;;8.20;;
12120;SDS011;6124;59.460;17.908;2022-08-19T14:10:57;10.23;;;8.60;;
12120;SDS011;6124;59.460;17.908;2022-08-19T14:13:24;9.63;;;7.77;;
12120;SDS011;6124;59.460;17.908;2022-08-19T14:15:51;8.87;;;8.07;;
12120;SDS011;6124;59.460;17.908;2022-08-19T14:18:19;9.90;;;8.00;;
12120;SDS011;6124;59.460;17.908;2022-08-19T14:20:48;12.73;;;8.07;;
12120;SDS011;6124;59.460;17.908;2022-08-19T14:23:15;8.83;;;7.90;;
12120;SDS011;6124;59.460;17.908;2022-08-19T14:25:43;13.47;;;7.97;;
12120;SDS011;6124;59.460;17.908;2022-08-19T14:28:11;11.93;;;7.40;;
12120;SDS011;6124;59.460;17.908;2022-08-19T14:30:38;8.27;;;7.13;;
12120;SDS011;6124;59.460;17.908;2022-08-19T14:33:05;8.50;;;7.57;;
12120;SDS011;6124;59.460;17.908;2022-08-19T14:35:33;9.47;;;7.83;;